Time;durP1;ratioP1;P1;durP2;ratioP2;P2;SDS_P1;SDS_P2;PMS_P1;PMS_P2;Temp;Humidity;BMP_temperature;BMP_pressure;BME280_temperature;BME280_humidity;BME280_pressure;Samples;Min_cycle;Max_cycle;Signal;HPM_P1;HPM_P2
2023/02/13 00:00:18;;;;;;;39.70;15.70;;;;;;;-142.75;100.00;79433.47;4972756;28;19940;-66
2023/02/13 00:02:43;;;;;;;28.77;14.53;;;;;;;-142.75;100.00;79431.50;4954321;28;20027;-68
2023/02/13 00:05:09;;;;;;;;;;;;;;;-142.75;100.00;79441.34;4954559;28;20058;-69
2023/02/13 00:07:34;;;;;;;37.90;16.63;;;;;;;-142.75;100.00;79461.06;4952413;28;19918;-68
2023/02/13 00:09:59;;;;;;;;;;;;;;;-142.75;100.00;79451.22;4953244;28;20412;-68
2023/02/13 00:12:24;;;;;;;33.23;14.03;;;;;;;-142.75;100.00;79439.38;4968691;28;19910;-67
2023/02/13 00:14:50;;;;;;;36.83;16.30;;;;;;;-142.75;100.00;79449.25;4954042;28;20027;-68
2023/02/13 00:17:15;;;;;;;;;;;;;;;-142.75;100.00;79449.25;4954271;28;20420;-69
2023/02/13 00:19:40;;;;;;;33.67;14.70;;;;;;;-142.75;100.00;79453.19;4971663;28;20008;-68
2023/02/13 00:22:06;;;;;;;;;;;;;;;-142.75;100.00;79449.25;4973594;28;20065;-68
2023/02/13 00:24:31;;;;;;;31.27;14.90;;;;;;;-142.75;100.00;79431.50;4972858;28;19931;-68
2023/02/13 00:26:56;;;;;;;;;;;;;;;-142.75;100.00;79439.38;4956354;28;20387;-68
2023/02/13 00:29:21;;;;;;;38.10;16.50;;;;;;;-142.75;100.00;79441.34;4972612;28;19914;-68
2023/02/13 00:31:47;;;;;;;;;;;;;;;-142.75;100.00;79449.25;4973318;28;20030;-68
2023/02/13 00:34:12;;;;;;;34.23;15.57;;;;;;;-142.75;100.00;79453.19;4972878;28;19976;-68
2023/02/13 00:36:37;;;;;;;38.03;17.27;;;;;;;-142.75;100.00;79441.34;4972716;28;20049;-67
2023/02/13 00:39:03;;;;;;;;;;;;;;;-142.75;100.00;79445.28;4973094;28;20037;-68
2023/02/13 00:41:29;;;;;;;35.13;14.97;;;;;;;-142.75;100.00;79445.28;4955230;28;19913;-68
2023/02/13 00:43:54;;;;;;;35.47;16.23;;;;;;;-142.75;100.00;79433.47;4962380;28;20038;-68
2023/02/13 00:46:20;;;;;;;;;;;;;;;-142.75;100.00;79445.28;4953826;28;20027;-67
2023/02/13 00:48:45;;;;;;;34.70;15.87;;;;;;;-142.75;100.00;79457.13;4953149;28;19936;-67
2023/02/13 00:51:10;;;;;;;;;;;;;;;-142.75;100.00;79457.13;4953850;28;20069;-68
2023/02/13 00:53:37;;;;;;;41.90;17.10;;;;;;;-142.75;100.00;79457.13;4953103;28;19914;-68
2023/02/13 00:56:04;;;;;;;37.10;16.60;;;;;;;-142.75;100.00;79449.25;4971800;28;20042;-68
2023/02/13 00:58:30;;;;;;;38.27;17.40;;;;;;;-142.75;100.00;79455.16;4972230;28;20031;-68
2023/02/13 01:00:55;;;;;;;;;;;;;;;-142.75;100.00;79465.00;4972621;28;20054;-68
2023/02/13 01:03:21;;;;;;;33.53;15.43;;;;;;;-142.75;100.00;79461.06;4954985;28;19951;-68
2023/02/13 01:05:47;;;;;;;41.23;16.77;;;;;;;-142.75;100.00;79447.28;4954968;28;20039;-67
2023/02/13 01:08:13;;;;;;;;;;;;;;;-142.75;100.00;79453.19;4953323;28;20105;-68
2023/02/13 01:10:40;;;;;;;34.03;15.15;;;;;;;-142.75;100.00;79453.19;4953052;28;20025;-67
2023/02/13 01:13:06;;;;;;;35.47;16.13;;;;;;;-142.75;100.00;79465.00;4952888;28;20465;-67
2023/02/13 01:15:32;;;;;;;38.97;17.73;;;;;;;-142.75;100.00;79441.34;4952891;28;20030;-67
2023/02/13 01:17:59;;;;;;;;;;;;;;;-142.75;100.00;79421.66;4955292;28;20023;-67
2023/02/13 01:20:25;;;;;;;34.33;15.67;;;;;;;-142.75;100.00;79441.34;4971999;28;19941;-68
2023/02/13 01:22:50;;;;;;;;;;;;;;;-142.75;100.00;79415.75;4972495;28;20476;-68
2023/02/13 01:25:16;;;;;;;36.57;16.53;;;;;;;-142.75;100.00;79419.69;4971989;28;20329;-68
2023/02/13 01:27:41;;;;;;;;;;;;;;;-142.75;100.00;79423.63;4972523;28;20038;-68
2023/02/13 01:30:12;;;;;;;33.87;15.23;;;;;;;-142.75;100.00;79431.50;4972080;28;19926;-68
2023/02/13 01:32:38;;;;;;;36.27;16.57;;;;;;;-142.75;100.00;79431.50;4972007;28;20022;-67
2023/02/13 01:35:03;;;;;;;;;;;;;;;-142.75;100.00;79429.53;4955213;28;20029;-67
2023/02/13 01:37:28;;;;;;;33.08;16.10;;;;;;;-142.75;100.00;79433.47;4971672;28;19916;-68
2023/02/13 01:39:55;;;;;;;;;;;;;;;-142.75;100.00;79419.69;4972262;28;20434;-68
2023/02/13 01:42:25;;;;;;;34.30;15.83;;;;;;;-142.75;100.00;79411.81;4954386;28;20383;-69
2023/02/13 01:45:17;;;;;;;35.87;16.83;;;;;;;-142.75;100.00;79419.69;4971761;28;20491;-68
2023/02/13 01:48:08;;;;;;;40.43;17.00;;;;;;;-142.75;100.00;79441.34;4960758;28;20034;-69
2023/02/13 01:50:38;;;;;;;32.97;15.37;;;;;;;-142.75;100.00;79423.63;4961112;28;20035;-67
2023/02/13 01:53:07;;;;;;;37.87;15.43;;;;;;;-142.75;100.00;79405.91;4965820;28;20023;-67
2023/02/13 01:55:37;;;;;;;36.23;16.43;;;;;;;-142.75;100.00;79425.59;4952588;28;20055;-67
2023/02/13 01:58:13;;;;;;;43.93;16.97;;;;;;;-142.75;100.00;79429.53;4952218;28;20023;-68
2023/02/13 02:00:39;;;;;;;36.03;17.13;;;;;;;-142.75;100.00;79439.38;4952496;28;20388;-67
2023/02/13 02:03:16;;;;;;;;;;;;;;;-142.75;100.00;79433.47;4952781;28;20042;-68
2023/02/13 02:05:42;;;;;;;26.52;11.68;;;;;;;-142.75;100.00;79427.56;4952529;28;19913;-67
2023/02/13 02:08:09;;;;;;;;;;;;;;;-142.75;100.00;79423.63;4951358;28;20023;-68
2023/02/13 02:10:35;;;;;;;34.63;16.70;;;;;;;-142.75;100.00;79439.38;4952448;28;19952;-69
2023/02/13 02:13:04;;;;;;;;;;;;;;;-142.75;100.00;79425.59;4951595;28;20420;-68
2023/02/13 02:15:29;;;;;;;32.67;14.13;;;;;;;-142.75;100.00;79415.75;4950875;28;19989;-68
2023/02/13 02:17:55;;;;;;;;;;;;;;;-142.75;100.00;79421.66;4952565;28;20170;-68
2023/02/13 02:20:47;;;;;;;36.23;16.10;;;;;;;-142.75;100.00;79433.47;4952220;28;19956;-68
2023/02/13 02:23:28;;;;;;;38.10;17.03;;;;;;;-142.75;100.00;79447.28;4952240;28;20054;-69
2023/02/13 02:26:09;;;;;;;39.47;17.50;;;;;;;-142.75;100.00;79443.31;4952301;28;20023;-67
2023/02/13 02:29:01;;;;;;;32.83;15.60;;;;;;;-142.75;100.00;79433.47;4952043;28;20031;-67
2023/02/13 02:31:57;;;;;;;34.57;16.40;;;;;;;-142.75;100.00;79417.72;4952266;28;20015;-68
2023/02/13 02:34:58;;;;;;;33.17;15.67;;;;;;;-142.75;100.00;79413.78;4951318;28;20082;-67
2023/02/13 02:37:27;;;;;;;35.80;16.10;;;;;;;-142.75;100.00;79411.81;4950700;28;20034;-67
2023/02/13 02:40:09;;;;;;;33.03;16.07;;;;;;;-142.75;100.00;79417.72;4952088;28;20380;-68
2023/02/13 02:42:47;;;;;;;36.83;16.23;;;;;;;-142.75;100.00;79409.84;4954036;28;20299;-67
2023/02/13 02:45:33;;;;;;;37.60;17.20;;;;;;;-142.75;100.00;79405.91;4971276;28;20030;-67
2023/02/13 02:50:56;;;;;;;36.73;16.73;;;;;;;-142.75;100.00;79421.66;4971260;28;20030;-68
2023/02/13 02:53:41;;;;;;;35.70;16.20;;;;;;;-142.75;100.00;79417.72;4971120;28;20510;-67
2023/02/13 02:56:32;;;;;;;40.33;15.70;;;;;;;-142.75;100.00;79405.91;4960645;28;20039;-68
2023/02/13 03:07:28;;;;;;;35.77;16.77;;;;;;;-142.75;100.00;79423.63;4955275;28;20066;-67
2023/02/13 03:13:22;;;;;;;35.57;15.83;;;;;;;-142.75;100.00;79390.13;4955495;28;20013;-67
2023/02/13 03:25:33;;;;;;;35.70;15.87;;;;;;;-142.75;100.00;79407.88;4974034;28;20506;-68
2023/02/13 03:31:52;;;;;;;33.70;14.98;;;;;;;-142.75;100.00;79401.97;4974462;28;20595;-67
2023/02/13 03:34:24;;;;;;;37.17;17.20;;;;;;;-142.75;100.00;79411.81;4973847;28;20022;-67
2023/02/13 03:39:58;;;;;;;32.87;15.73;;;;;;;-142.75;100.00;79405.91;4954820;28;20097;-67
2023/02/13 03:42:40;;;;;;;32.87;16.47;;;;;;;-142.75;100.00;79411.81;4954770;28;20029;-67
2023/02/13 03:48:00;;;;;;;37.10;16.03;;;;;;;-142.75;100.00;79394.09;4969210;28;20555;-68
2023/02/13 03:50:26;;;;;;;38.27;15.77;;;;;;;-142.75;100.00;79388.16;4973765;28;20018;-67
2023/02/13 03:53:02;;;;;;;32.27;15.73;;;;;;;-142.75;100.00;79388.16;4973584;28;20089;-68
2023/02/13 04:01:13;;;;;;;38.07;16.07;;;;;;;-142.75;100.00;79401.97;4973757;28;20038;-68
2023/02/13 04:03:39;;;;;;;40.80;16.53;;;;;;;-142.75;100.00;79390.13;4973406;28;20034;-67
2023/02/13 04:06:36;;;;;;;;;;;;;;;-142.75;100.00;79386.19;4956145;28;20038;-69
2023/02/13 04:09:02;;;;;;;34.10;15.73;;;;;;;-142.75;100.00;79401.97;4950894;28;19917;-68
2023/02/13 04:11:32;;;;;;;;;;;;;;;-142.75;100.00;79382.25;4973646;28;20015;-67
2023/02/13 04:14:00;;;;;;;30.33;13.60;;;;;;;-142.75;100.00;79378.31;4973335;28;19910;-68
2023/02/13 04:16:37;;;;;;;34.40;14.50;;;;;;;-142.75;100.00;79382.25;4973222;28;20089;-68
2023/02/13 04:19:05;;;;;;;33.57;15.33;;;;;;;-142.75;100.00;79378.31;4972997;28;20131;-67
2023/02/13 04:21:35;;;;;;;32.33;15.23;;;;;;;-142.75;100.00;79380.28;4973202;28;20078;-66
2023/02/13 04:24:01;;;;;;;26.93;12.70;;;;;;;-142.75;100.00;79382.25;4955750;28;20027;-68
2023/02/13 04:26:29;;;;;;;;;;;;;;;-142.75;100.00;79417.72;4956078;28;20023;-67
2023/02/13 04:28:55;;;;;;;31.83;14.13;;;;;;;-142.75;100.00;79394.09;4955352;28;19922;-67
2023/02/13 04:31:20;;;;;;;;;;;;;;;-142.75;100.00;79384.22;4973499;28;20018;-67
2023/02/13 04:33:45;;;;;;;29.40;13.27;;;;;;;-142.75;100.00;79378.31;4952380;28;19922;-67
2023/02/13 04:36:10;;;;;;;;;;;;;;;-142.75;100.00;79382.25;4954088;28;20023;-68
2023/02/13 04:38:36;;;;;;;29.90;12.33;;;;;;;-142.75;100.00;79390.13;4953399;28;19973;-67
2023/02/13 04:41:01;;;;;;;33.93;13.80;;;;;;;-142.75;100.00;79398.03;4965765;28;20026;-67
2023/02/13 04:43:26;;;;;;;;;;;;;;;-142.75;100.00;79390.13;4973017;28;20022;-69
2023/02/13 04:45:52;;;;;;;29.93;13.33;;;;;;;-142.75;100.00;79392.13;4968693;28;19910;-67
2023/02/13 04:48:17;;;;;;;;;;;;;;;-142.75;100.00;79396.06;4963616;28;20026;-68
2023/02/13 04:50:42;;;;;;;29.73;13.63;;;;;;;-142.75;100.00;79398.03;4972689;28;20274;-67
2023/02/13 04:53:08;;;;;;;;;;;;;;;-142.75;100.00;79382.25;4972802;28;20026;-68
2023/02/13 04:55:33;;;;;;;32.27;13.60;;;;;;;-142.75;100.00;79394.09;4972622;28;19910;-69
2023/02/13 04:57:58;;;;;;;;;;;;;;;-142.75;100.00;79392.13;4972696;28;20035;-67
2023/02/13 05:00:26;;;;;;;29.10;12.10;;;;;;;-142.75;100.00;79374.38;4955097;28;19939;-68
2023/02/13 05:02:52;;;;;;;30.60;13.90;;;;;;;-142.75;100.00;79358.63;4972343;28;20026;-68
2023/02/13 05:05:18;;;;;;;;;;;;;;;-142.75;100.00;79346.81;4972800;28;20604;-67
2023/02/13 05:07:43;;;;;;;30.60;13.27;;;;;;;-142.75;100.00;79348.78;4971975;28;19926;-66
2023/02/13 05:10:09;;;;;;;;;;;;;;;-142.75;100.00;79342.88;4972688;28;20025;-67
2023/02/13 05:12:34;;;;;;;30.33;12.90;;;;;;;-142.75;100.00;79338.94;4972233;28;19984;-68
2023/02/13 05:15:00;;;;;;;;;;;;;;;-142.75;100.00;79346.81;4972597;28;20484;-68
2023/02/13 05:17:25;;;;;;;32.73;13.30;;;;;;;-142.75;100.00;79354.69;4950830;28;19910;-68
2023/02/13 05:19:50;;;;;;;;;;;;;;;-142.75;100.00;79346.81;4968478;28;20031;-67
2023/02/13 05:24:59;;;;;;;34.27;15.50;;;;;;;-142.75;100.00;79358.63;4972198;28;20073;-67
2023/02/13 05:27:25;;;;;;;;;;;;;;;-142.75;100.00;79354.69;4969660;28;20069;-65
2023/02/13 05:29:50;;;;;;;34.97;13.60;;;;;;;-142.75;100.00;79364.53;4972098;28;20031;-68
2023/02/13 05:32:15;;;;;;;;;;;;;;;-142.75;100.00;79346.81;4972437;28;20078;-68
2023/02/13 05:34:40;;;;;;;34.40;13.83;;;;;;;-142.75;100.00;79335.00;4971825;28;19941;-67
2023/02/13 05:37:06;;;;;;;;;;;;;;;-142.75;100.00;79335.00;4972061;28;20097;-67
2023/02/13 05:39:31;;;;;;;34.03;13.63;;;;;;;-142.75;100.00;79346.81;4971696;28;19910;-67
2023/02/13 05:41:56;;;;;;;;;;;;;;;-142.75;100.00;79333.00;4972188;28;20035;-67
2023/02/13 05:44:21;;;;;;;38.07;14.80;;;;;;;-142.75;100.00;79331.03;4971784;28;19949;-67
2023/02/13 05:46:48;;;;;;;;;;;;;;;-142.75;100.00;79333.00;4972250;28;20117;-67
2023/02/13 05:49:14;;;;;;;36.23;15.10;;;;;;;-142.75;100.00;79333.00;4971594;28;19914;-67
2023/02/13 05:51:41;;;;;;;27.93;14.13;;;;;;;-142.75;100.00;79323.16;4954519;28;20716;-67
2023/02/13 05:54:06;;;;;;;32.50;14.83;;;;;;;-142.75;100.00;79342.88;4972073;28;20037;-67
2023/02/13 05:56:31;;;;;;;;;;;;;;;-142.75;100.00;79335.00;4953590;28;20476;-67
2023/02/13 05:58:57;;;;;;;32.00;14.27;;;;;;;-142.75;100.00;79335.00;4952193;28;20031;-67
2023/02/13 06:01:22;;;;;;;;;;;;;;;-142.75;100.00;79342.88;4952935;28;20082;-67
2023/02/13 06:03:48;;;;;;;30.83;14.07;;;;;;;-142.75;100.00;79335.00;4952303;28;19911;-67
2023/02/13 06:06:13;;;;;;;;;;;;;;;-142.75;100.00;79331.03;4953040;28;20086;-67
2023/02/13 06:08:39;;;;;;;34.87;15.20;;;;;;;-142.75;100.00;79335.00;4951996;28;19960;-67
2023/02/13 06:11:04;;;;;;;32.37;14.73;;;;;;;-142.75;100.00;79342.88;4963737;28;20448;-67
2023/02/13 06:13:30;;;;;;;;;;;;;;;-142.75;100.00;79342.88;4961182;28;20083;-68
2023/02/13 06:15:55;;;;;;;33.40;15.03;;;;;;;-142.75;100.00;79333.00;4952283;28;19973;-67
2023/02/13 06:18:20;;;;;;;;;;;;;;;-142.75;100.00;79335.00;4952512;28;20077;-68
2023/02/13 06:20:46;;;;;;;39.67;16.27;;;;;;;-142.75;100.00;79329.06;4950867;28;19964;-65
2023/02/13 06:23:11;;;;;;;;;;;;;;;-142.75;100.00;79329.06;4951398;28;20118;-64
2023/02/13 06:25:37;;;;;;;32.97;14.10;;;;;;;-142.75;100.00;79350.75;4952158;28;19911;-68
2023/02/13 06:28:04;;;;;;;37.37;16.77;;;;;;;-142.75;100.00;79335.00;4951996;28;20491;-67
2023/02/13 06:30:29;;;;;;;36.73;16.40;;;;;;;-142.75;100.00;79327.09;4955004;28;20030;-67
2023/02/13 06:32:55;;;;;;;;;;;;;;;-142.75;100.00;79317.25;4956315;28;20027;-68
2023/02/13 06:35:20;;;;;;;37.27;14.87;;;;;;;-142.75;100.00;79325.13;4954400;28;19910;-67
2023/02/13 06:37:45;;;;;;;38.70;17.43;;;;;;;-142.75;100.00;79329.06;4973703;28;20387;-65
2023/02/13 06:40:11;;;;;;;;;;;;;;;-142.75;100.00;79331.03;4975348;28;20190;-68
2023/02/13 06:42:37;;;;;;;36.43;15.40;;;;;;;-142.75;100.00;79335.00;4954505;28;19910;-67
2023/02/13 06:45:02;;;;;;;;;;;;;;;-142.75;100.00;79350.75;4956028;28;20049;-67
2023/02/13 06:47:28;;;;;;;30.90;15.27;;;;;;;-142.75;100.00;79370.44;4951471;28;19910;-68
2023/02/13 06:49:53;;;;;;;;;;;;;;;-142.75;100.00;79378.31;4956072;28;20412;-67
2023/02/13 06:52:19;;;;;;;35.77;15.43;;;;;;;-142.75;100.00;79382.25;4955418;28;20283;-67
2023/02/13 06:54:44;;;;;;;;;;;;;;;-142.75;100.00;79386.19;4958602;28;20042;-68
2023/02/13 06:57:09;;;;;;;33.83;14.83;;;;;;;-142.75;100.00;79390.13;4959005;28;19914;-67
2023/02/13 06:59:34;;;;;;;;;;;;;;;-142.75;100.00;79394.09;4954641;28;20023;-68
2023/02/13 07:02:00;;;;;;;35.80;15.03;;;;;;;-142.75;100.00;79390.13;4960561;28;20296;-67
2023/02/13 07:04:26;;;;;;;;;;;;;;;-142.75;100.00;79405.91;4953871;28;20081;-66
2023/02/13 07:06:54;;;;;;;34.63;15.87;;;;;;;-142.75;100.00;79396.06;4953419;28;19910;-66
2023/02/13 07:09:19;;;;;;;33.80;15.63;;;;;;;-142.75;100.00;79394.09;4953083;28;20027;-67
2023/02/13 07:11:44;;;;;;;;;;;;;;;-142.75;100.00;79386.19;4955143;28;20535;-68
2023/02/13 07:14:10;;;;;;;34.87;16.07;;;;;;;-142.75;100.00;79386.19;4954605;28;19911;-67
2023/02/13 07:16:35;;;;;;;;;;;;;;;-142.75;100.00;79411.81;4955225;28;20070;-67
2023/02/13 07:19:00;;;;;;;33.33;14.03;;;;;;;-142.75;100.00;79409.84;4956740;28;19910;-67
2023/02/13 07:21:25;;;;;;;;;;;;;;;-142.75;100.00;79401.97;4955414;28;20015;-68
2023/02/13 07:23:51;;;;;;;34.50;15.90;;;;;;;-142.75;100.00;79403.94;4954828;28;19933;-66
2023/02/13 07:26:16;;;;;;;;;;;;;;;-142.75;100.00;79394.09;4954178;28;20364;-63
2023/02/13 07:28:42;;;;;;;39.20;16.20;;;;;;;-142.75;100.00;79405.91;4954569;28;19976;-65
2023/02/13 07:31:07;;;;;;;;;;;;;;;-142.75;100.00;79394.09;4953098;28;20023;-67
2023/02/13 07:33:33;;;;;;;33.60;15.40;;;;;;;-142.75;100.00;79390.13;4954638;28;19993;-68
2023/02/13 07:35:59;;;;;;;35.33;16.57;;;;;;;-142.75;100.00;79413.78;4954733;28;20078;-67
2023/02/13 07:38:25;;;;;;;37.63;16.70;;;;;;;-142.75;100.00;79384.22;4954442;28;20023;-67
2023/02/13 07:40:50;;;;;;;;;;;;;;;-142.75;100.00;79378.31;4956299;28;20370;-67
2023/02/13 07:43:15;;;;;;;32.87;14.80;;;;;;;-142.75;100.00;79400.00;4956382;28;19965;-66
2023/02/13 07:45:41;;;;;;;37.10;16.53;;;;;;;-142.75;100.00;79405.91;4956681;28;20385;-65
2023/02/13 07:48:06;;;;;;;37.57;17.70;;;;;;;-142.75;100.00;79394.09;4954213;28;20023;-66
2023/02/13 07:50:31;;;;;;;;;;;;;;;-142.75;100.00;79354.69;4954977;28;20082;-68
2023/02/13 07:53:01;;;;;;;33.73;15.63;;;;;;;-142.75;100.00;79362.56;4955459;28;19914;-67
2023/02/13 07:55:28;;;;;;;31.97;14.73;;;;;;;-142.75;100.00;79370.44;4954739;28;20026;-67
2023/02/13 07:57:53;;;;;;;31.30;14.67;;;;;;;-142.75;100.00;79350.75;4955449;28;20432;-67
2023/02/13 08:00:19;;;;;;;;;;;;;;;-142.75;100.00;79346.81;4955525;28;20015;-67
2023/02/13 08:02:45;;;;;;;35.23;16.23;;;;;;;-142.75;100.00;79317.25;4956033;28;20397;-67
2023/02/13 08:05:10;;;;;;;;;;;;;;;-142.75;100.00;79295.59;4951286;28;20548;-68
2023/02/13 08:07:35;;;;;;;39.10;16.37;;;;;;;-142.75;100.00;79283.78;4955601;28;19917;-67
2023/02/13 08:12:45;;;;;;;38.03;17.00;;;;;;;-142.75;100.00;79240.44;4955266;28;19956;-67
2023/02/13 08:15:11;;;;;;;;;;;;;;;-142.75;100.00;79242.41;4954301;28;20062;-69
2023/02/13 08:17:37;;;;;;;36.07;16.73;;;;;;;-142.75;100.00;79228.63;4953710;28;19964;-66
2023/02/13 08:20:03;;;;;;;;;;;;;;;-142.75;100.00;79230.59;4949291;28;20038;-67
2023/02/13 08:22:29;;;;;;;36.67;17.40;;;;;;;-142.75;100.00;79244.38;4953401;28;19910;-67
2023/02/13 08:24:54;;;;;;;38.97;17.87;;;;;;;-142.75;100.00;79234.53;4961643;28;20125;-66
2023/02/13 08:27:19;;;;;;;;;;;;;;;-142.75;100.00;79244.38;4967764;28;20027;-65
2023/02/13 08:29:45;;;;;;;35.87;16.73;;;;;;;-142.75;100.00;79232.56;4972865;28;20406;-65
2023/02/13 08:32:10;;;;;;;;;;;;;;;-142.75;100.00;79228.63;4973327;28;20098;-65
2023/02/13 08:34:35;;;;;;;36.60;17.92;;;;;;;-142.75;100.00;79218.75;4972825;28;20009;-65
2023/02/13 08:37:01;;;;;;;;;;;;;;;-142.75;100.00;79181.34;4973353;28;20042;-64
2023/02/13 08:39:26;;;;;;;88.53;40.28;;;;;;;-142.75;100.00;79183.31;4960098;28;20386;-65
2023/02/13 08:41:51;;;;;;;;;;;;;;;-142.75;100.00;79187.25;4961750;28;20030;-65
2023/02/13 08:44:17;;;;;;;45.83;23.65;;;;;;;-142.75;100.00;79165.59;4953384;28;19911;-66
2023/02/13 08:46:42;;;;;;;;;;;;;;;-142.75;100.00;79171.50;4953394;28;20046;-67
2023/02/13 08:49:07;;;;;;;43.95;20.63;;;;;;;-142.75;100.00;79157.72;4954091;28;19914;-66
2023/02/13 08:51:32;;;;;;;;;;;;;;;-142.75;100.00;79153.75;4954758;28;20078;-68
2023/02/13 08:53:58;;;;;;;45.97;21.02;;;;;;;-142.75;100.00;79141.94;4971478;28;20009;-67
2023/02/13 08:56:23;;;;;;;;;;;;;;;-142.75;100.00;79126.19;4972003;28;20105;-67
2023/02/13 08:58:49;;;;;;;41.72;21.38;;;;;;;-142.75;100.00;79130.13;4971396;28;19941;-64
2023/02/13 09:01:14;;;;;;;;;;;;;;;-142.75;100.00;79132.09;4954834;28;20048;-67
2023/02/13 09:03:40;;;;;;;43.78;20.50;;;;;;;-142.75;100.00;79145.88;4954903;28;19957;-67
2023/02/13 09:06:05;;;;;;;;;;;;;;;-142.75;100.00;79149.81;4972755;28;20053;-65
2023/02/13 09:08:30;;;;;;;41.20;18.17;;;;;;;-142.75;100.00;79145.88;4968713;28;19910;-66
2023/02/13 09:11:01;;;;;;;39.17;19.15;;;;;;;-142.75;100.00;79118.31;4951747;28;20046;-67
2023/02/13 09:13:34;;;;;;;39.05;18.88;;;;;;;-142.75;100.00;79106.50;4968987;28;20501;-66
2023/02/13 09:16:00;;;;;;;40.47;19.13;;;;;;;-142.75;100.00;79076.94;4952553;28;20049;-66
2023/02/13 09:18:26;;;;;;;40.60;19.23;;;;;;;-142.75;100.00;79043.47;4952565;28;20027;-67
2023/02/13 09:21:09;;;;;;;37.15;19.08;;;;;;;-142.75;100.00;79004.06;4952782;28;20038;-67
2023/02/13 09:23:37;;;;;;;44.15;21.10;;;;;;;-142.75;100.00;78982.41;4952778;28;20038;-67
2023/02/13 09:26:04;;;;;;;38.05;18.58;;;;;;;-142.75;100.00;78984.38;4951465;28;20073;-68
2023/02/13 09:28:32;;;;;;;35.97;19.33;;;;;;;-142.75;100.00;78992.25;4952495;28;20480;-67
2023/02/13 09:30:59;;;;;;;39.65;20.23;;;;;;;-142.75;100.00;78964.69;4957497;28;20067;-67
2023/02/13 09:33:25;;;;;;;;;;;;;;;-142.75;100.00;78968.63;4972432;28;20081;-67
2023/02/13 09:35:51;;;;;;;40.20;19.08;;;;;;;-142.75;100.00;78978.47;4954499;28;20390;-67
2023/02/13 09:38:16;;;;;;;;;;;;;;;-142.75;100.00;78968.63;4958853;28;20066;-67
2023/02/13 09:40:51;;;;;;;42.63;19.58;;;;;;;-142.75;100.00;78956.78;4971439;28;19918;-66
2023/02/13 09:43:26;;;;;;;43.00;20.02;;;;;;;-142.75;100.00;78931.19;4951212;28;20115;-66
2023/02/13 09:45:57;;;;;;;42.78;19.65;;;;;;;-142.75;100.00;78893.78;4952553;28;20532;-66
2023/02/13 09:48:31;;;;;;;40.40;20.33;;;;;;;-142.75;100.00;78856.34;4952331;28;20039;-68
2023/02/13 09:50:57;;;;;;;41.65;20.35;;;;;;;-142.75;100.00;78830.75;4952579;28;20027;-68
2023/02/13 09:53:24;;;;;;;43.35;20.23;;;;;;;-142.75;100.00;78811.03;4952443;28;20375;-68
2023/02/13 09:56:03;;;;;;;46.58;21.38;;;;;;;-142.75;100.00;78803.16;4952498;28;20084;-67
2023/02/13 09:58:34;;;;;;;39.13;20.33;;;;;;;-142.75;100.00;78818.91;4951088;28;20027;-66
2023/02/13 10:01:03;;;;;;;42.13;20.75;;;;;;;-142.75;100.00;78822.88;4952378;28;20071;-67
2023/02/13 10:03:30;;;;;;;43.50;20.58;;;;;;;-142.75;100.00;78791.34;4952894;28;20027;-67
2023/02/13 10:06:08;;;;;;;43.63;20.55;;;;;;;-142.75;100.00;78818.91;4956283;28;20132;-67
2023/02/13 10:08:44;;;;;;;42.60;21.10;;;;;;;-142.75;100.00;78797.25;4971212;28;20077;-67
2023/02/13 10:11:24;;;;;;;45.00;21.40;;;;;;;-142.75;100.00;78787.41;4975652;28;20030;-67
2023/02/13 10:14:13;;;;;;;43.60;20.95;;;;;;;-142.75;100.00;78759.84;4967913;28;20023;-65
2023/02/13 10:16:46;;;;;;;46.63;21.55;;;;;;;-142.75;100.00;78803.16;4956197;28;20098;-66
2023/02/13 10:19:28;;;;;;;44.90;21.70;;;;;;;-142.75;100.00;78801.19;4960838;28;20027;-67
2023/02/13 10:22:22;;;;;;;49.88;21.85;;;;;;;-142.75;100.00;78736.19;4975418;28;20113;-67
2023/02/13 10:24:54;;;;;;;50.83;22.80;;;;;;;-142.75;100.00;78714.53;4949993;28;20047;-67
2023/02/13 10:27:48;;;;;;;46.40;21.67;;;;;;;-142.75;100.00;78669.25;4969242;28;20034;-67
2023/02/13 10:30:25;;;;;;;43.10;20.95;;;;;;;-142.75;100.00;78625.91;4965811;28;20035;-66
2023/02/13 10:33:10;;;;;;;45.60;21.63;;;;;;;-142.75;100.00;78616.06;4954690;28;20026;-67
2023/02/13 10:35:36;;;;;;;46.92;21.77;;;;;;;-142.75;100.00;78600.31;4961283;28;20473;-67
2023/02/13 10:38:13;;;;;;;45.85;21.05;;;;;;;-142.75;100.00;78543.19;4966102;28;20065;-67
2023/02/13 10:40:52;;;;;;;44.58;21.38;;;;;;;-142.75;100.00;78503.81;4957743;28;20026;-68
2023/02/13 10:43:22;;;;;;;40.17;20.77;;;;;;;-142.75;100.00;78517.59;4974821;28;20027;-66
2023/02/13 10:46:10;;;;;;;42.80;21.35;;;;;;;-142.75;100.00;78484.09;4974812;28;20019;-67
2023/02/13 10:48:44;;;;;;;38.33;19.58;;;;;;;-142.75;100.00;78460.47;4957639;28;20449;-68
2023/02/13 10:51:35;;;;;;;40.08;19.85;;;;;;;-142.75;100.00;78462.44;4957473;28;20484;-67
2023/02/13 10:54:18;;;;;;;47.17;22.23;;;;;;;-142.75;100.00;78454.56;4957088;28;20170;-67
2023/02/13 10:56:48;;;;;;;46.22;20.92;;;;;;;-142.75;100.00;78493.97;4974583;28;20105;-68
2023/02/13 10:59:49;;;;;;;43.55;21.88;;;;;;;-142.75;100.00;78549.09;4957202;28;20085;-67
2023/02/13 11:02:31;;;;;;;44.65;21.08;;;;;;;-142.75;100.00;78525.47;4944631;28;20101;-66
2023/02/13 11:05:12;;;;;;;39.42;19.45;;;;;;;-142.75;100.00;78478.19;4967522;28;20035;-68
2023/02/13 11:07:38;;;;;;;41.42;20.08;;;;;;;-142.75;100.00;78464.41;4955049;28;20023;-67
2023/02/13 11:10:13;;;;;;;39.47;18.65;;;;;;;-142.75;99.50;78436.84;4955110;28;20395;-68
2023/02/13 11:12:38;;;;;;;39.42;20.30;;;;;;;-142.75;100.00;78419.13;4955108;28;20707;-68
2023/02/13 11:15:18;;;;;;;47.00;21.15;;;;;;;-142.75;96.74;78369.88;4954209;28;20100;-67
2023/02/13 11:17:45;;;;;;;37.03;18.08;;;;;;;-142.75;92.89;78318.69;4957152;28;20023;-67
2023/02/13 11:20:33;;;;;;;41.60;18.67;;;;;;;-142.75;91.41;78300.97;4974254;28;20105;-67
2023/02/13 11:23:33;;;;;;;38.13;19.95;;;;;;;-142.75;88.87;78306.88;4974002;28;20107;-68
2023/02/13 11:26:09;;;;;;;39.80;18.90;;;;;;;-142.75;87.82;78261.56;4974162;28;20030;-68
2023/02/13 11:28:55;;;;;;;39.67;19.80;;;;;;;-142.75;84.47;78186.75;4973965;28;20027;-67
2023/02/13 11:31:25;;;;;;;37.55;20.05;;;;;;;-142.75;84.33;78208.41;4973938;28;20015;-68
2023/02/13 11:33:51;;;;;;;36.83;16.75;;;;;;;-142.75;83.93;78188.72;4958666;28;20090;-68
2023/02/13 11:36:31;;;;;;;33.90;16.60;;;;;;;-142.75;81.43;78188.72;4954776;28;20074;-68
2023/02/13 11:38:58;;;;;;;35.00;16.80;;;;;;;-142.75;82.58;78167.03;4954358;28;20504;-68
2023/02/13 11:41:25;;;;;;;33.17;16.70;;;;;;;-142.75;83.02;78208.41;4953288;28;20025;-64
2023/02/13 11:44:00;;;;;;;34.90;17.90;;;;;;;-142.75;82.96;78249.75;4953194;28;20058;-68
2023/02/13 11:46:27;;;;;;;37.60;16.20;;;;;;;-142.75;83.10;78247.78;4954635;28;20027;-68
2023/02/13 11:49:02;;;;;;;34.15;15.75;;;;;;;-142.75;83.51;78277.31;4956333;28;20117;-68
2023/02/13 11:51:46;;;;;;;31.10;15.60;;;;;;;-142.75;84.75;78283.22;4973644;28;20093;-68
2023/02/13 11:54:29;;;;;;;31.50;15.13;;;;;;;-142.75;84.18;78275.34;4973755;28;20050;-68
2023/02/13 11:56:57;;;;;;;32.22;15.40;;;;;;;-142.75;84.75;78265.50;4967439;28;20056;-66
2023/02/13 11:59:25;;;;;;;29.80;15.13;;;;;;;-142.75;83.88;78273.38;4952901;28;20026;-68
2023/02/13 12:02:02;;;;;;;29.20;13.60;;;;;;;-142.75;85.20;78247.78;4954178;28;20048;-68
2023/02/13 12:04:28;;;;;;;30.77;14.65;;;;;;;-142.75;83.06;78216.28;4957829;28;20077;-68
2023/02/13 12:07:18;;;;;;;28.27;14.80;;;;;;;-142.75;82.24;78220.22;4973317;28;20026;-68
2023/02/13 12:09:46;;;;;;;27.17;14.73;;;;;;;-142.75;82.39;78245.81;4972794;28;20627;-68